Time;durP1;ratioP1;P1;durP2;ratioP2;P2;SDS_P1;SDS_P2;PMS_P1;PMS_P2;Temp;Humidity;BMP_temperature;BMP_pressure;BME280_temperature;BME280_humidity;BME280_pressure;Samples;Min_cycle;Max_cycle;Signal;HPM_P1;HPM_P2
2023/12/25 00:01:10;;;;;;;0.00;0.00;;;;;;;10.40;68.53;148742.56;5003978;28;20299;-52
2023/12/25 00:03:37;;;;;;;0.00;0.00;;;;;;;10.36;69.14;148733.81;5001617;28;20292;-53
2023/12/25 00:06:04;;;;;;;0.00;0.00;;;;;;;10.41;68.18;148745.06;5004525;28;20608;-52
2023/12/25 00:08:30;;;;;;;0.00;0.00;;;;;;;10.33;69.65;148727.56;5001857;28;20746;-52
2023/12/25 00:10:57;;;;;;;0.00;0.00;;;;;;;10.31;68.81;148722.59;5002979;28;20276;-52
2023/12/25 00:13:25;;;;;;;0.00;0.00;;;;;;;10.36;68.81;148733.81;5000313;28;20709;-53
2023/12/25 00:15:52;;;;;;;0.00;0.00;;;;;;;10.32;68.86;148725.09;5002933;28;20241;-52
2023/12/25 00:18:19;;;;;;;0.00;0.00;;;;;;;10.30;68.98;148718.88;5000660;28;20229;-52
2023/12/25 00:20:45;;;;;;;0.00;0.00;;;;;;;10.33;68.45;148726.34;5005280;28;20721;-54
2023/12/25 00:23:12;;;;;;;0.00;0.00;;;;;;;10.34;68.49;148728.84;5007296;28;20239;-54
2023/12/25 00:25:38;;;;;;;0.00;0.00;;;;;;;10.31;67.99;148722.59;5005402;28;20241;-54
2023/12/25 00:28:06;;;;;;;0.00;0.00;;;;;;;10.29;68.45;148716.38;4986605;28;20221;-52
2023/12/25 00:30:35;;;;;;;0.00;0.00;;;;;;;10.26;69.19;148708.91;5001923;28;20256;-54
2023/12/25 00:33:02;;;;;;;0.00;0.00;;;;;;;10.26;68.74;148710.13;4988240;28;20236;-52
2023/12/25 00:35:28;;;;;;;0.00;0.00;;;;;;;10.25;69.68;148706.44;5004603;28;20236;-52
2023/12/25 00:37:55;;;;;;;0.00;0.00;;;;;;;10.18;70.40;148690.22;4989152;28;20674;-51
2023/12/25 00:40:22;;;;;;;0.00;0.00;;;;;;;10.22;68.07;148700.19;4986799;28;20454;-51
2023/12/25 00:42:48;;;;;;;0.00;0.00;;;;;;;10.23;68.50;148701.44;5007176;28;20713;-52
2023/12/25 00:45:15;;;;;;;0.00;0.00;;;;;;;10.23;69.22;148701.44;4986588;28;20234;-54
2023/12/25 00:47:43;;;;;;;0.00;0.00;;;;;;;10.25;69.46;148706.44;5007038;28;20301;-53
2023/12/25 00:50:10;;;;;;;0.00;0.00;;;;;;;10.19;69.41;148693.97;4989372;28;20220;-52
2023/12/25 00:52:36;;;;;;;0.00;0.00;;;;;;;10.08;69.80;148666.59;5000940;28;20241;-52
2023/12/25 00:55:03;;;;;;;0.00;0.00;;;;;;;10.10;69.02;148670.28;5006515;28;20249;-52
2023/12/25 00:57:30;;;;;;;0.00;0.00;;;;;;;10.13;69.02;148677.75;5004429;28;20222;-51
2023/12/25 00:59:56;;;;;;;0.00;0.00;;;;;;;10.08;69.61;148665.31;5007201;28;20314;-52
2023/12/25 01:02:23;;;;;;;0.00;0.00;;;;;;;10.06;69.09;148661.59;4986023;28;20233;-52
2023/12/25 01:04:51;;;;;;;0.00;0.00;;;;;;;10.02;70.00;148652.91;4989115;28;20220;-52
2023/12/25 01:07:18;;;;;;;0.00;0.00;;;;;;;10.04;68.91;148656.63;4986533;28;20222;-54
2023/12/25 01:09:44;;;;;;;0.00;0.00;;;;;;;10.06;70.28;148661.59;5001954;28;20226;-52
2023/12/25 01:12:11;;;;;;;0.00;0.00;;;;;;;10.01;70.26;148649.16;4990646;28;20238;-54
2023/12/25 01:14:42;;;;;;;0.00;0.00;;;;;;;9.95;70.34;148634.22;4985377;28;20287;-52
2023/12/25 01:17:08;;;;;;;0.00;0.00;;;;;;;9.93;70.55;148629.22;4991473;28;20253;-54
2023/12/25 01:19:35;;;;;;;0.00;0.00;;;;;;;9.88;70.47;148619.25;4988801;28;20240;-52
2023/12/25 01:22:03;;;;;;;0.00;0.00;;;;;;;9.95;69.51;148634.22;4988820;28;20234;-52
2023/12/25 01:24:33;;;;;;;0.00;0.00;;;;;;;9.94;70.99;148632.97;5003421;28;20221;-54
2023/12/25 01:27:00;;;;;;;0.00;0.00;;;;;;;9.97;70.11;148639.19;5006428;28;20281;-54
2023/12/25 01:29:27;;;;;;;0.00;0.00;;;;;;;9.93;70.26;148630.50;4987905;28;20689;-53
2023/12/25 01:31:53;;;;;;;0.00;0.00;;;;;;;9.83;71.54;148605.59;4988391;28;20232;-51
2023/12/25 01:34:20;;;;;;;0.00;0.00;;;;;;;9.86;69.97;148614.28;4987325;28;20928;-52
2023/12/25 01:36:47;;;;;;;0.00;0.00;;;;;;;9.86;71.08;148614.28;5006428;28;20221;-53
2023/12/25 01:39:15;;;;;;;0.00;0.00;;;;;;;9.81;71.75;148601.84;5006430;28;20263;-52
2023/12/25 01:41:42;;;;;;;0.00;0.00;;;;;;;9.82;70.58;148603.09;5002290;28;20762;-53
2023/12/25 01:44:09;;;;;;;0.00;0.00;;;;;;;9.82;69.86;148604.31;4988254;28;20240;-53
2023/12/25 01:46:36;;;;;;;0.00;0.00;;;;;;;9.83;70.95;148606.81;4985157;28;20236;-52
2023/12/25 01:49:02;;;;;;;0.00;0.00;;;;;;;9.79;70.28;148595.63;5006109;28;20819;-53
2023/12/25 01:51:29;;;;;;;0.00;0.00;;;;;;;9.77;69.87;148591.88;4986081;28;20232;-52
2023/12/25 01:53:56;;;;;;;0.00;0.00;;;;;;;9.77;69.29;148591.88;5005583;28;20236;-52
2023/12/25 01:56:24;;;;;;;0.00;0.00;;;;;;;9.79;70.52;148595.63;4981190;28;20229;-52
2023/12/25 01:58:50;;;;;;;0.00;0.00;;;;;;;9.76;70.15;148589.38;5004537;28;20233;-52
2023/12/25 02:01:17;;;;;;;0.00;0.00;;;;;;;9.73;69.81;148581.91;4985566;28;20282;-52
2023/12/25 02:03:44;;;;;;;0.00;0.00;;;;;;;9.82;70.50;148603.09;4987807;28;20254;-52
2023/12/25 02:06:13;;;;;;;0.00;0.00;;;;;;;9.72;69.76;148579.44;4987902;28;20771;-54
2023/12/25 02:08:40;;;;;;;0.00;0.00;;;;;;;9.72;70.13;148580.69;5003278;28;20686;-52
2023/12/25 02:11:06;;;;;;;0.00;0.00;;;;;;;9.67;71.28;148568.25;4987672;28;20220;-52
2023/12/25 02:13:34;;;;;;;0.00;0.00;;;;;;;9.66;71.08;148565.75;4985114;28;20225;-52
2023/12/25 02:16:01;;;;;;;0.00;0.00;;;;;;;9.60;71.10;148550.81;4988334;28;20242;-54
2023/12/25 02:18:29;;;;;;;0.00;0.00;;;;;;;9.70;69.15;148575.72;4985075;28;20229;-52
2023/12/25 02:20:57;;;;;;;0.00;0.00;;;;;;;9.62;70.23;148555.81;4985966;28;20235;-52
2023/12/25 02:23:26;;;;;;;0.00;0.00;;;;;;;9.62;71.55;148554.53;5000489;28;20608;-53
2023/12/25 02:25:57;;;;;;;0.00;0.00;;;;;;;9.71;68.86;148576.94;4994114;28;20236;-53
2023/12/25 02:28:23;;;;;;;0.00;0.00;;;;;;;9.70;68.43;148575.72;5001712;28;20229;-52
2023/12/25 02:30:51;;;;;;;0.00;0.00;;;;;;;9.63;69.58;148558.28;4987862;28;20230;-52
2023/12/25 02:33:18;;;;;;;0.00;0.00;;;;;;;9.58;69.78;148545.84;4984971;28;20245;-51
2023/12/25 02:35:44;;;;;;;0.00;0.00;;;;;;;9.59;69.04;148549.56;4987470;28;20240;-52
2023/12/25 02:38:11;;;;;;;0.00;0.00;;;;;;;9.58;70.02;148547.06;5005380;28;20240;-52
2023/12/25 02:40:39;;;;;;;0.00;0.00;;;;;;;9.63;69.30;148558.28;4984183;28;20248;-54
2023/12/25 02:43:08;;;;;;;0.00;0.00;;;;;;;9.62;68.67;148555.81;4987491;28;20285;-52
2023/12/25 02:45:35;;;;;;;0.00;0.00;;;;;;;9.63;70.09;148558.28;4984537;28;20234;-53
2023/12/25 02:48:02;;;;;;;0.00;0.00;;;;;;;9.62;69.29;148555.81;5005225;28;20231;-54
2023/12/25 02:50:28;;;;;;;0.00;0.00;;;;;;;9.60;69.43;148550.81;4983943;28;20231;-54
2023/12/25 02:52:55;;;;;;;0.00;0.00;;;;;;;9.58;69.09;148547.06;4984860;28;20252;-53
2023/12/25 02:55:22;;;;;;;0.00;0.00;;;;;;;9.60;70.13;148550.81;4984002;28;20238;-51
2023/12/25 02:57:48;;;;;;;0.00;0.00;;;;;;;9.56;69.84;148540.88;5005001;28;20233;-52
2023/12/25 03:00:17;;;;;;;0.00;0.00;;;;;;;9.65;68.03;148562.00;4984068;28;20217;-53
2023/12/25 03:02:45;;;;;;;0.00;0.00;;;;;;;9.62;69.22;148554.53;4986500;28;20235;-52
2023/12/25 03:05:12;;;;;;;0.00;0.00;;;;;;;9.55;70.03;148538.38;4987004;28;20577;-54
2023/12/25 03:07:38;;;;;;;0.00;0.00;;;;;;;9.55;69.67;148538.38;5002183;28;20315;-53
2023/12/25 03:10:06;;;;;;;0.10;0.10;;;;;;;9.51;68.12;148529.69;4986857;28;20218;-52
2023/12/25 03:12:33;;;;;;;0.00;0.00;;;;;;;9.52;69.38;148530.91;4977333;28;20239;-52
2023/12/25 03:14:59;;;;;;;0.00;0.00;;;;;;;9.49;69.26;148524.69;4985769;28;20229;-53
2023/12/25 03:17:27;;;;;;;0.00;0.00;;;;;;;9.50;68.85;148527.19;5001215;28;20245;-52
2023/12/25 03:19:54;;;;;;;0.00;0.00;;;;;;;9.47;69.74;148518.47;4985119;28;20361;-52
2023/12/25 03:22:20;;;;;;;0.00;0.00;;;;;;;9.49;68.28;148524.69;4983253;28;20227;-54
2023/12/25 03:24:47;;;;;;;0.00;0.00;;;;;;;9.49;67.49;148523.44;5003404;28;20716;-52
2023/12/25 03:27:14;;;;;;;0.00;0.00;;;;;;;9.46;68.45;148517.22;4986189;28;20228;-52
2023/12/25 03:29:40;;;;;;;0.00;0.00;;;;;;;9.46;69.24;148517.22;5001640;28;20234;-52
2023/12/25 03:32:07;;;;;;;0.00;0.00;;;;;;;9.42;68.09;148507.28;5004621;28;20280;-52
2023/12/25 03:34:45;;;;;;;0.00;0.00;;;;;;;9.43;67.82;148509.78;4983851;28;20576;-52
2023/12/25 03:37:12;;;;;;;0.00;0.00;;;;;;;9.37;69.11;148496.06;5003842;28;20229;-52
2023/12/25 03:39:38;;;;;;;0.00;0.00;;;;;;;9.37;68.03;148496.06;5001872;28;20626;-52
2023/12/25 03:42:07;;;;;;;0.00;0.00;;;;;;;9.38;67.71;148498.53;5004603;28;20229;-53
2023/12/25 03:44:34;;;;;;;0.00;0.00;;;;;;;9.38;67.80;148498.53;4983488;28;20234;-53
2023/12/25 03:47:02;;;;;;;0.00;0.00;;;;;;;9.44;66.55;148513.47;5004633;28;20234;-52
2023/12/25 03:49:29;;;;;;;0.00;0.00;;;;;;;9.43;67.92;148509.78;4982821;28;20222;-53
2023/12/25 03:52:00;;;;;;;0.00;0.00;;;;;;;9.40;67.07;148503.53;5004022;28;20226;-52
2023/12/25 03:54:26;;;;;;;0.00;0.00;;;;;;;9.39;66.29;148499.81;4985525;28;20226;-52
2023/12/25 03:56:53;;;;;;;0.00;0.00;;;;;;;9.34;66.62;148488.59;4988637;28;20239;-52
2023/12/25 03:59:19;;;;;;;0.00;0.00;;;;;;;9.33;68.19;148486.09;4988018;28;20241;-53
2023/12/25 04:04:28;;;;;;;0.00;0.00;;;;;;;9.34;68.29;148487.38;5346562;23;20685;-51
2023/12/25 04:06:54;;;;;;;0.00;0.00;;;;;;;9.27;68.76;148472.44;4982810;28;20223;-50
2023/12/25 04:09:22;;;;;;;0.00;0.00;;;;;;;9.25;67.94;148467.47;4986226;28;20696;-50
2023/12/25 04:11:49;;;;;;;0.00;0.00;;;;;;;9.25;69.17;148467.47;4966907;28;20784;-51
2023/12/25 04:14:16;;;;;;;0.00;0.00;;;;;;;9.22;68.78;148460.00;4981917;28;20241;-51
2023/12/25 04:16:43;;;;;;;0.07;0.07;;;;;;;9.13;70.20;148438.81;4970861;28;20231;-50
2023/12/25 04:19:10;;;;;;;0.00;0.00;;;;;;;9.16;68.60;148445.06;4972763;28;20225;-50
2023/12/25 04:21:37;;;;;;;0.00;0.00;;;;;;;9.16;68.92;148446.28;4967356;28;20246;-51
2023/12/25 04:24:04;;;;;;;0.00;0.00;;;;;;;9.17;68.55;148447.53;4970857;28;20234;-54
2023/12/25 04:26:32;;;;;;;0.00;0.00;;;;;;;9.14;69.64;148441.28;4984236;28;20229;-54
2023/12/25 04:28:59;;;;;;;0.00;0.00;;;;;;;9.13;69.36;148437.59;4969985;28;20591;-51
2023/12/25 04:31:26;;;;;;;0.00;0.00;;;;;;;9.13;69.67;148438.81;5228638;23;20231;-54
2023/12/25 04:33:53;;;;;;;0.00;0.00;;;;;;;9.13;69.49;148437.59;4964546;28;20250;-54
2023/12/25 04:36:20;;;;;;;0.00;0.00;;;;;;;9.18;70.07;148448.75;4975077;28;20241;-53
2023/12/25 04:38:46;;;;;;;0.00;0.00;;;;;;;9.15;69.86;148443.78;4967106;28;20301;-54
2023/12/25 04:41:13;;;;;;;0.00;0.00;;;;;;;9.09;70.19;148428.84;4976821;28;20232;-53
2023/12/25 04:43:41;;;;;;;0.00;0.00;;;;;;;9.09;70.06;148428.84;4974690;28;20278;-51
2023/12/25 04:46:08;;;;;;;0.00;0.00;;;;;;;9.07;69.64;148423.88;4979601;28;20229;-51
2023/12/25 04:48:35;;;;;;;0.00;0.00;;;;;;;9.08;69.31;148426.38;4991898;28;20710;-53
2023/12/25 04:51:02;;;;;;;0.00;0.00;;;;;;;9.11;69.91;148432.63;4982302;28;20222;-51
2023/12/25 04:53:31;;;;;;;0.00;0.00;;;;;;;9.05;69.65;148418.91;4977384;28;20260;-53
2023/12/25 04:55:58;;;;;;;0.00;0.00;;;;;;;9.03;69.62;148413.91;4993644;28;20800;-53
2023/12/25 04:58:24;;;;;;;0.00;0.00;;;;;;;9.08;68.78;148425.16;4979806;28;20567;-51
2023/12/25 05:00:52;;;;;;;0.00;0.00;;;;;;;9.07;68.38;148423.88;4995926;28;20227;-53
2023/12/25 05:03:21;;;;;;;0.00;0.00;;;;;;;9.06;68.79;148420.16;4992209;28;20218;-51
2023/12/25 05:05:49;;;;;;;0.00;0.00;;;;;;;9.03;68.84;148413.91;4977698;28;20728;-53
2023/12/25 05:08:16;;;;;;;0.00;0.00;;;;;;;9.01;69.09;148410.22;4982841;28;20223;-51
2023/12/25 05:10:43;;;;;;;0.00;0.00;;;;;;;9.09;67.63;148427.63;5001438;28;20698;-52
2023/12/25 05:13:09;;;;;;;0.00;0.00;;;;;;;8.94;69.34;148391.56;4982087;28;20217;-51
2023/12/25 05:15:36;;;;;;;0.00;0.00;;;;;;;8.90;69.76;148381.63;4977828;28;20582;-51
2023/12/25 05:18:05;;;;;;;0.00;0.00;;;;;;;8.91;70.08;148384.09;4984384;28;20721;-51
2023/12/25 05:20:31;;;;;;;0.00;0.00;;;;;;;8.96;69.99;148396.53;4994254;28;20230;-53
2023/12/25 05:22:58;;;;;;;0.00;0.00;;;;;;;8.90;71.80;148381.63;4980611;28;20236;-53
2023/12/25 05:25:25;;;;;;;0.00;0.00;;;;;;;8.84;69.45;148369.19;4975970;28;20228;-51
2023/12/25 05:27:51;;;;;;;0.00;0.00;;;;;;;8.86;70.19;148372.88;4981277;28;20229;-54
2023/12/25 05:30:18;;;;;;;0.00;0.00;;;;;;;8.88;69.45;148377.88;4977486;28;20686;-52
2023/12/25 05:32:45;;;;;;;0.00;0.00;;;;;;;8.87;69.71;148375.38;4979065;28;20242;-53
2023/12/25 05:35:13;;;;;;;0.07;0.07;;;;;;;8.77;70.30;148351.75;4980425;28;20247;-54
2023/12/25 05:37:39;;;;;;;0.00;0.00;;;;;;;8.83;70.94;148366.69;4978906;28;20230;-54
2023/12/25 05:40:07;;;;;;;0.00;0.00;;;;;;;8.79;70.24;148355.47;4978092;28;20237;-54
2023/12/25 05:42:34;;;;;;;0.00;0.00;;;;;;;8.76;70.50;148348.00;4977620;28;20237;-51
2023/12/25 05:45:00;;;;;;;0.00;0.00;;;;;;;8.77;70.44;148351.75;4979541;28;20226;-51
2023/12/25 05:47:27;;;;;;;0.00;0.00;;;;;;;8.73;71.13;148341.81;4977496;28;20218;-51
2023/12/25 05:49:53;;;;;;;0.00;0.00;;;;;;;8.71;72.12;148336.84;4979755;28;20230;-51
2023/12/25 05:52:21;;;;;;;0.00;0.00;;;;;;;8.69;71.23;148333.06;4977018;28;20231;-54
2023/12/25 05:54:47;;;;;;;0.00;0.00;;;;;;;8.68;70.72;148330.59;4977462;28;20235;-53
2023/12/25 05:57:14;;;;;;;0.00;0.00;;;;;;;8.74;69.70;148344.28;4982465;28;20223;-53
2023/12/25 05:59:41;;;;;;;0.00;0.00;;;;;;;8.70;69.73;148335.56;4978819;28;20226;-51
2023/12/25 06:02:08;;;;;;;0.00;0.00;;;;;;;8.67;69.83;148326.88;4979079;28;20771;-52
2023/12/25 06:04:34;;;;;;;0.00;0.00;;;;;;;8.70;69.28;148334.34;4976972;28;20215;-52
2023/12/25 06:07:01;;;;;;;0.00;0.00;;;;;;;8.71;69.48;148338.06;4980122;28;20223;-51
2023/12/25 06:09:29;;;;;;;0.00;0.00;;;;;;;8.67;69.53;148326.88;4980110;28;20691;-51
2023/12/25 06:11:55;;;;;;;0.00;0.00;;;;;;;8.79;67.66;148355.47;4980999;28;20242;-52
2023/12/25 06:14:22;;;;;;;0.00;0.00;;;;;;;8.73;69.09;148340.53;4978106;28;20298;-52
2023/12/25 06:16:49;;;;;;;0.00;0.00;;;;;;;8.79;68.39;148355.47;4979280;28;20246;-51
2023/12/25 06:19:16;;;;;;;0.00;0.00;;;;;;;8.71;68.28;148338.06;4976837;28;20218;-54
2023/12/25 06:21:43;;;;;;;0.00;0.00;;;;;;;8.74;68.72;148343.03;4977913;28;20320;-53
2023/12/25 06:24:09;;;;;;;0.00;0.00;;;;;;;8.72;68.62;148339.31;4980249;28;20237;-51
2023/12/25 06:26:37;;;;;;;0.00;0.00;;;;;;;8.75;67.16;148345.50;4977108;28;20245;-53
2023/12/25 06:29:04;;;;;;;0.00;0.00;;;;;;;8.70;69.29;148335.56;4977962;28;20304;-51
2023/12/25 06:31:30;;;;;;;0.00;0.00;;;;;;;8.70;69.01;148334.34;4977881;28;20260;-53
2023/12/25 06:33:57;;;;;;;0.00;0.00;;;;;;;8.70;68.91;148335.56;4978478;28;20321;-53
2023/12/25 06:36:24;;;;;;;0.00;0.00;;;;;;;8.68;69.02;148329.38;4977000;28;20764;-53
2023/12/25 06:38:51;;;;;;;0.00;0.00;;;;;;;8.68;69.12;148329.38;4980426;28;20249;-52
2023/12/25 06:41:18;;;;;;;0.00;0.00;;;;;;;8.67;69.55;148328.09;4977643;28;20234;-51
2023/12/25 06:43:46;;;;;;;0.00;0.00;;;;;;;8.69;68.28;148331.84;4977581;28;20223;-52
2023/12/25 06:46:13;;;;;;;0.00;0.00;;;;;;;8.71;67.72;148338.06;4981922;28;20222;-51
2023/12/25 06:48:39;;;;;;;0.00;0.00;;;;;;;8.72;68.60;148339.31;4975435;28;20318;-51
2023/12/25 06:51:08;;;;;;;0.00;0.00;;;;;;;8.71;67.79;148338.06;4975802;28;20223;-52
2023/12/25 06:53:35;;;;;;;0.00;0.00;;;;;;;8.70;68.32;148335.56;4977711;28;20234;-53
2023/12/25 06:56:02;;;;;;;0.00;0.00;;;;;;;8.69;68.53;148333.06;4979687;28;20634;-51
2023/12/25 06:58:28;;;;;;;0.00;0.00;;;;;;;8.66;68.99;148325.63;4976013;28;20230;-54
2023/12/25 07:00:56;;;;;;;0.00;0.00;;;;;;;8.64;69.44;148319.41;4979504;28;20233;-51
2023/12/25 07:03:23;;;;;;;0.00;0.00;;;;;;;8.65;68.65;148323.13;4976415;28;20215;-52
2023/12/25 07:05:50;;;;;;;0.00;0.00;;;;;;;8.64;69.38;148320.63;4977174;28;20240;-52
2023/12/25 07:08:17;;;;;;;0.00;0.00;;;;;;;8.67;69.84;148326.88;4990808;28;20226;-51
2023/12/25 07:10:46;;;;;;;0.00;0.00;;;;;;;8.64;69.24;148320.63;4981270;28;20244;-51
2023/12/25 07:13:12;;;;;;;0.00;0.00;;;;;;;8.64;69.36;148319.41;4978906;28;20237;-51
2023/12/25 07:15:39;;;;;;;0.00;0.00;;;;;;;8.67;68.59;148326.88;4977060;28;20232;-51
2023/12/25 07:18:07;;;;;;;0.00;0.00;;;;;;;8.63;68.41;148316.94;4980761;28;20224;-52
2023/12/25 07:20:34;;;;;;;0.00;0.00;;;;;;;8.60;69.04;148309.47;4973023;28;20226;-53
2023/12/25 07:23:00;;;;;;;0.00;0.00;;;;;;;8.61;69.17;148311.94;4979832;28;20593;-53
2023/12/25 07:25:27;;;;;;;0.00;0.00;;;;;;;8.58;68.37;148305.72;4977545;28;20222;-51
2023/12/25 07:27:53;;;;;;;0.00;0.00;;;;;;;8.57;68.52;148303.22;4978632;28;20239;-52
2023/12/25 07:30:20;;;;;;;0.00;0.00;;;;;;;8.56;69.72;148300.72;4975705;28;20594;-54
2023/12/25 07:32:47;;;;;;;0.00;0.00;;;;;;;8.56;68.48;148302.00;4981054;28;20242;-54
2023/12/25 07:35:15;;;;;;;0.00;0.00;;;;;;;8.52;69.89;148292.06;4980475;28;20254;-53
2023/12/25 07:37:42;;;;;;;0.00;0.00;;;;;;;8.56;69.14;148300.72;4975817;28;20248;-54
2023/12/25 07:40:10;;;;;;;0.00;0.00;;;;;;;8.56;69.84;148300.72;4978920;28;20244;-54
2023/12/25 07:42:37;;;;;;;0.00;0.00;;;;;;;8.55;70.63;148299.50;4974102;28;20697;-53
2023/12/25 07:45:04;;;;;;;0.00;0.00;;;;;;;8.61;69.76;148313.19;4977435;28;20298;-54
2023/12/25 07:47:31;;;;;;;0.00;0.00;;;;;;;8.61;69.78;148313.19;4975591;28;20840;-54
2023/12/25 07:49:58;;;;;;;0.00;0.00;;;;;;;8.60;69.12;148309.47;4978093;28;20225;-54
2023/12/25 07:52:26;;;;;;;0.00;0.00;;;;;;;8.62;69.46;148315.66;4973740;28;20244;-54
2023/12/25 07:54:54;;;;;;;0.00;0.00;;;;;;;8.66;68.68;148324.38;4979103;28;20744;-54
2023/12/25 07:57:21;;;;;;;0.00;0.00;;;;;;;8.65;70.39;148321.91;4977050;28;20325;-54
2023/12/25 07:59:48;;;;;;;0.00;0.00;;;;;;;8.68;69.50;148330.59;4978771;28;20731;-52
2023/12/25 08:02:15;;;;;;;0.00;0.00;;;;;;;8.65;70.39;148323.13;4977576;28;20245;-53
2023/12/25 08:04:42;;;;;;;0.00;0.00;;;;;;;8.65;69.77;148321.91;4977535;28;20726;-52
2023/12/25 08:07:09;;;;;;;0.00;0.00;;;;;;;8.69;69.93;148331.84;4977364;28;20590;-54
2023/12/25 08:09:37;;;;;;;0.00;0.00;;;;;;;8.71;69.39;148338.06;4975528;28;20242;-52
2023/12/25 08:12:04;;;;;;;0.00;0.00;;;;;;;8.70;70.68;148334.34;4977808;28;20272;-52
2023/12/25 08:14:34;;;;;;;0.00;0.00;;;;;;;8.73;70.63;148340.53;4975522;28;20683;-51
2023/12/25 08:17:01;;;;;;;0.00;0.00;;;;;;;8.76;69.85;148348.00;4977523;28;20249;-52
2023/12/25 08:19:28;;;;;;;0.00;0.00;;;;;;;8.79;69.14;148355.47;4989507;28;20226;-51
2023/12/25 08:21:54;;;;;;;0.00;0.00;;;;;;;8.76;71.25;148348.00;4978365;28;20366;-51
2023/12/25 08:24:21;;;;;;;0.00;0.00;;;;;;;8.77;71.22;148351.75;4976848;28;20222;-54
2023/12/25 08:26:49;;;;;;;0.00;0.00;;;;;;;8.77;71.26;148350.50;4977400;28;20248;-53
2023/12/25 08:29:15;;;;;;;0.00;0.00;;;;;;;8.74;72.98;148343.03;4975192;28;20233;-52
2023/12/25 08:31:42;;;;;;;0.00;0.00;;;;;;;8.86;71.29;148374.16;4977456;28;20251;-52
2023/12/25 08:34:09;;;;;;;0.00;0.00;;;;;;;8.91;71.40;148384.09;4979267;28;20231;-54
2023/12/25 08:36:36;;;;;;;0.00;0.00;;;;;;;8.90;71.21;148381.63;4975905;28;20242;-53
2023/12/25 08:39:02;;;;;;;0.00;0.00;;;;;;;8.90;71.66;148381.63;4978534;28;20226;-54
2023/12/25 08:41:30;;;;;;;0.00;0.00;;;;;;;8.86;73.99;148374.16;4975659;28;20229;-51
2023/12/25 08:43:58;;;;;;;0.00;0.00;;;;;;;8.82;72.79;148364.19;4982308;28;20815;-52
2023/12/25 08:46:26;;;;;;;0.00;0.00;;;;;;;8.82;74.53;148362.94;4978217;28;20226;-52
2023/12/25 08:48:53;;;;;;;0.00;0.00;;;;;;;8.81;74.90;148360.44;4983473;28;20246;-53
2023/12/25 08:51:19;;;;;;;0.00;0.00;;;;;;;8.80;75.58;148359.22;4978709;28;20243;-53
2023/12/25 08:53:46;;;;;;;0.00;0.00;;;;;;;8.78;76.23;148352.97;4983341;28;20686;-52
2023/12/25 08:56:13;;;;;;;0.00;0.00;;;;;;;8.84;76.17;148367.91;4983159;28;20222;-51
2023/12/25 08:58:40;;;;;;;0.00;0.00;;;;;;;8.84;75.93;148367.91;4977978;28;20226;-54
2023/12/25 09:01:08;;;;;;;0.00;0.00;;;;;;;8.89;76.77;148380.34;4980019;28;20304;-51
2023/12/25 09:03:35;;;;;;;0.00;0.00;;;;;;;8.86;78.26;148372.88;4978733;28;20237;-51
2023/12/25 09:06:02;;;;;;;0.00;0.00;;;;;;;8.90;76.66;148382.84;4980034;28;20235;-51
2023/12/25 09:08:29;;;;;;;0.00;0.00;;;;;;;8.89;77.22;148379.13;4980045;28;20354;-52
2023/12/25 09:10:56;;;;;;;0.10;0.10;;;;;;;8.94;77.81;148392.78;4981434;28;20582;-51
2023/12/25 09:13:22;;;;;;;0.00;0.00;;;;;;;8.95;77.81;148394.06;4978848;28;20234;-54
2023/12/25 09:15:49;;;;;;;0.00;0.00;;;;;;;8.95;77.24;148395.28;4982199;28;20251;-53
2023/12/25 09:18:17;;;;;;;0.00;0.00;;;;;;;8.92;79.20;148386.59;4976287;28;20234;-54
2023/12/25 09:20:44;;;;;;;0.00;0.00;;;;;;;9.04;78.40;148415.19;4977365;28;20231;-51
2023/12/25 09:23:10;;;;;;;0.00;0.00;;;;;;;9.03;80.50;148413.91;4979552;28;20218;-54
2023/12/25 09:25:37;;;;;;;0.00;0.00;;;;;;;9.04;80.55;148415.19;4978344;28;20231;-54
2023/12/25 09:28:04;;;;;;;0.00;0.00;;;;;;;9.01;80.45;148408.94;4981097;28;20226;-51
2023/12/25 09:30:31;;;;;;;0.00;0.00;;;;;;;8.92;81.06;148387.81;4978233;28;20298;-52
2023/12/25 09:32:57;;;;;;;0.00;0.00;;;;;;;8.94;81.87;148391.56;4980972;28;20226;-51
2023/12/25 09:35:25;;;;;;;0.00;0.00;;;;;;;8.90;83.29;148381.63;4979241;28;20242;-54
2023/12/25 09:37:52;;;;;;;0.00;0.00;;;;;;;8.89;84.70;148380.34;4982335;28;20709;-51
2023/12/25 09:40:19;;;;;;;0.00;0.00;;;;;;;9.00;84.39;148407.72;4977550;28;20226;-53
2023/12/25 09:42:46;;;;;;;0.00;0.00;;;;;;;9.05;84.93;148418.91;4980463;28;20238;-51
2023/12/25 09:45:14;;;;;;;0.00;0.00;;;;;;;9.01;87.13;148410.22;4981643;28;20614;-51
2023/12/25 09:47:42;;;;;;;0.00;0.00;;;;;;;9.13;84.98;148438.81;4980130;28;20235;-52
2023/12/25 09:50:09;;;;;;;0.00;0.00;;;;;;;9.11;88.40;148433.81;4980478;28;20276;-52
2023/12/25 09:52:38;;;;;;;0.00;0.00;;;;;;;9.01;90.09;148408.94;4979987;28;20249;-52
2023/12/25 09:55:05;;;;;;;0.00;0.00;;;;;;;9.00;90.02;148407.72;4982374;28;20237;-52
2023/12/25 09:57:33;;;;;;;0.00;0.00;;;;;;;8.97;88.56;148400.25;4976542;28;20223;-54
2023/12/25 10:00:02;;;;;;;0.00;0.00;;;;;;;8.89;90.88;148380.34;4980016;28;20219;-51
2023/12/25 10:02:37;;;;;;;0.00;0.00;;;;;;;8.82;91.71;148364.19;4977498;28;20238;-53
2023/12/25 10:05:05;;;;;;;0.00;0.00;;;;;;;9.00;91.57;148407.72;4979919;28;20707;-52
2023/12/25 10:07:31;;;;;;;0.00;0.00;;;;;;;8.78;94.90;148354.25;4973439;28;20223;-54
2023/12/25 10:09:59;;;;;;;0.00;0.00;;;;;;;8.80;96.94;148359.22;4979807;28;20218;-53
2023/12/25 10:12:26;;;;;;;0.00;0.00;;;;;;;8.95;96.87;148395.28;4977720;28;20234;-52
2023/12/25 10:14:53;;;;;;;0.00;0.00;;;;;;;8.89;98.24;148379.13;4980421;28;20230;-52
2023/12/25 10:17:19;;;;;;;0.00;0.00;;;;;;;8.93;95.72;148390.31;4979651;28;20234;-51
2023/12/25 10:19:51;;;;;;;0.00;0.00;;;;;;;8.95;93.44;148395.28;4982143;28;20248;-52
2023/12/25 10:22:29;;;;;;;0.00;0.00;;;;;;;8.95;93.18;148394.06;4976373;28;20309;-52
2023/12/25 10:24:56;;;;;;;0.00;0.00;;;;;;;8.97;91.79;148400.25;4980362;28;20341;-50
2023/12/25 10:27:24;;;;;;;0.00;0.00;;;;;;;9.01;92.09;148410.22;4973400;28;20293;-53
2023/12/25 10:29:51;;;;;;;0.00;0.00;;;;;;;9.07;90.12;148423.88;4978939;28;20245;-52
2023/12/25 10:32:18;;;;;;;0.00;0.00;;;;;;;9.14;93.11;148440.06;4976079;28;20228;-52
2023/12/25 10:34:45;;;;;;;0.00;0.00;;;;;;;8.95;93.36;148395.28;4980106;28;20253;-54
2023/12/25 10:37:12;;;;;;;0.00;0.00;;;;;;;8.82;93.69;148362.94;4977496;28;20231;-54
2023/12/25 10:39:39;;;;;;;0.00;0.00;;;;;;;8.63;95.75;148318.16;4976769;28;20283;-53
2023/12/25 10:42:07;;;;;;;0.00;0.00;;;;;;;8.77;94.88;148350.50;4981416;28;20223;-54
2023/12/25 10:44:37;;;;;;;0.00;0.00;;;;;;;8.84;93.67;148369.19;4976061;28;20310;-53
2023/12/25 10:47:06;;;;;;;0.00;0.00;;;;;;;8.69;97.32;148331.84;4976717;28;20234;-51
2023/12/25 10:49:37;;;;;;;0.00;0.00;;;;;;;8.67;98.35;148328.09;4974427;28;20234;-53
2023/12/25 10:52:05;;;;;;;0.00;0.00;;;;;;;8.63;97.95;148316.94;4979263;28;20231;-52
2023/12/25 10:54:37;;;;;;;0.00;0.00;;;;;;;8.58;99.15;148305.72;4975741;28;20253;-54
2023/12/25 10:57:06;;;;;;;0.00;0.00;;;;;;;8.46;97.56;148277.06;4980207;28;20231;-52
2023/12/25 10:59:39;;;;;;;0.00;0.00;;;;;;;8.31;100.00;148241.03;4977069;28;20313;-52
2023/12/25 11:02:12;;;;;;;0.00;0.00;;;;;;;8.33;100.00;148244.75;4979232;28;20230;-51
2023/12/25 11:04:42;;;;;;;0.00;0.00;;;;;;;8.23;100.00;148221.13;4976793;28;20221;-51
2023/12/25 11:07:09;;;;;;;0.00;0.00;;;;;;;8.41;100.00;148265.91;4978691;28;20696;-53
2023/12/25 11:09:36;;;;;;;0.00;0.00;;;;;;;8.35;100.00;148250.97;4976757;28;20247;-51
2023/12/25 11:12:03;;;;;;;0.00;0.00;;;;;;;8.45;100.00;148274.59;4979242;28;20233;-51
2023/12/25 11:14:33;;;;;;;0.00;0.00;;;;;;;8.47;100.00;148278.34;4973295;28;20759;-52
2023/12/25 11:17:02;;;;;;;0.00;0.00;;;;;;;8.45;100.00;148273.38;4977281;28;20226;-54
2023/12/25 11:19:34;;;;;;;0.00;0.00;;;;;;;8.58;100.00;148305.72;4976011;28;20894;-55
2023/12/25 11:22:28;;;;;;;0.00;0.00;;;;;;;8.48;100.00;148280.84;4979222;28;20702;-53
2023/12/25 11:24:55;;;;;;;0.00;0.00;;;;;;;8.51;100.00;148288.28;4978187;28;20236;-52
2023/12/25 11:27:22;;;;;;;0.00;0.00;;;;;;;8.59;100.00;148308.19;4973197;28;20223;-53
2023/12/25 11:29:49;;;;;;;0.00;0.00;;;;;;;8.63;100.00;148318.16;4978587;28;20759;-54
2023/12/25 11:32:18;;;;;;;0.00;0.00;;;;;;;8.56;100.00;148300.72;4979148;28;20235;-53
2023/12/25 11:34:48;;;;;;;0.00;0.00;;;;;;;8.65;98.05;148323.13;4974717;28;20720;-51